Time;durP1;ratioP1;P1;durP2;ratioP2;P2;SDS_P1;SDS_P2;PMS_P1;PMS_P2;Temp;Humidity;BMP_temperature;BMP_pressure;BME280_temperature;BME280_humidity;BME280_pressure;Samples;Min_cycle;Max_cycle;Signal;HPM_P1;HPM_P2
2022/04/01 00:01:26;;;;;;;33.70;20.38;;;;;;;;;;5066580;28;20028;-73
2022/04/01 00:03:52;;;;;;;28.70;18.83;;;;;;;;;;5067483;28;20361;-72
2022/04/01 00:06:18;;;;;;;29.50;17.83;;;;;;;;;;5066295;28;20036;-72
2022/04/01 00:08:44;;;;;;;29.58;17.13;;;;;;;;;;5067756;28;20044;-73
2022/04/01 00:11:10;;;;;;;29.08;17.48;;;;;;;;;;5066626;28;20032;-72
2022/04/01 00:13:37;;;;;;;25.40;16.05;;;;;;;;;;5067500;28;20617;-72
2022/04/01 00:16:03;;;;;;;26.75;16.67;;;;;;;;;;5061508;28;20027;-72
2022/04/01 00:18:29;;;;;;;28.00;17.65;;;;;;;;;;5067355;28;20050;-73
2022/04/01 00:20:55;;;;;;;27.20;17.77;;;;;;;;;;5064451;28;20039;-72
2022/04/01 00:23:21;;;;;;;25.65;16.15;;;;;;;;;;5063159;28;20036;-72
2022/04/01 00:25:47;;;;;;;28.70;16.83;;;;;;;;;;5064632;28;20025;-71
2022/04/01 00:28:13;;;;;;;30.63;18.48;;;;;;;;;;5067199;28;20516;-71
2022/04/01 00:30:40;;;;;;;30.48;17.58;;;;;;;;;;5067120;28;20482;-72
2022/04/01 00:33:08;;;;;;;28.40;17.00;;;;;;;;;;5066365;28;20032;-72
2022/04/01 00:35:34;;;;;;;27.42;16.98;;;;;;;;;;5070998;28;20052;-72
2022/04/01 00:38:01;;;;;;;27.02;17.67;;;;;;;;;;5070542;28;20033;-72
2022/04/01 00:40:27;;;;;;;30.70;17.15;;;;;;;;;;5070982;28;20033;-72
2022/04/01 00:42:53;;;;;;;34.78;19.42;;;;;;;;;;5070022;28;20064;-72
2022/04/01 00:45:19;;;;;;;30.38;17.45;;;;;;;;;;5070766;28;20074;-72
2022/04/01 00:47:45;;;;;;;30.92;18.05;;;;;;;;;;5060705;28;20052;-71
2022/04/01 00:50:11;;;;;;;32.53;19.08;;;;;;;;;;5035745;28;20491;-72
2022/04/01 00:52:37;;;;;;;26.42;16.00;;;;;;;;;;5047440;28;20059;-72
2022/04/01 00:55:08;;;;;;;35.30;19.85;;;;;;;;;;5045829;28;20032;-72
2022/04/01 00:57:35;;;;;;;26.00;17.38;;;;;;;;;;5036806;28;20069;-72
2022/04/01 01:00:02;;;;;;;28.63;17.25;;;;;;;;;;5035673;28;20029;-72
2022/04/01 01:02:28;;;;;;;30.60;17.38;;;;;;;;;;5039922;28;20503;-72
2022/04/01 01:04:54;;;;;;;27.63;16.90;;;;;;;;;;5050976;28;20491;-72
2022/04/01 01:07:20;;;;;;;28.00;17.25;;;;;;;;;;5032918;28;20033;-71
2022/04/01 01:09:46;;;;;;;30.27;16.70;;;;;;;;;;5030713;28;20032;-72
2022/04/01 01:12:12;;;;;;;29.15;16.63;;;;;;;;;;5045716;28;20054;-72
2022/04/01 01:14:39;;;;;;;31.63;20.13;;;;;;;;;;5049889;28;20025;-72
2022/04/01 01:17:11;;;;;;;30.80;17.50;;;;;;;;;;5035341;28;20029;-71
2022/04/01 01:19:38;;;;;;;31.38;18.52;;;;;;;;;;5044824;28;20033;-73
2022/04/01 01:22:05;;;;;;;35.85;21.05;;;;;;;;;;5034217;28;20033;-72
2022/04/01 01:24:31;;;;;;;30.52;18.92;;;;;;;;;;5039828;28;20108;-73
2022/04/01 01:26:58;;;;;;;30.77;17.90;;;;;;;;;;5041209;28;20048;-72
2022/04/01 01:29:25;;;;;;;32.42;18.05;;;;;;;;;;5034132;28;20368;-72
2022/04/01 01:31:52;;;;;;;32.08;19.60;;;;;;;;;;5033558;28;20036;-72
2022/04/01 01:34:18;;;;;;;30.33;19.70;;;;;;;;;;5030393;28;20033;-72
2022/04/01 01:36:45;;;;;;;31.77;19.23;;;;;;;;;;5049889;28;20037;-72
2022/04/01 01:39:11;;;;;;;29.88;18.80;;;;;;;;;;5044239;28;20383;-72
2022/04/01 01:41:37;;;;;;;30.77;19.10;;;;;;;;;;5043143;28;20045;-72
2022/04/01 01:44:04;;;;;;;34.47;19.60;;;;;;;;;;5033551;28;20072;-72
2022/04/01 01:46:30;;;;;;;34.90;20.48;;;;;;;;;;5038063;28;20117;-72
2022/04/01 01:48:56;;;;;;;30.85;18.25;;;;;;;;;;5049848;28;20048;-72
2022/04/01 01:56:52;;;;;;;32.55;19.40;;;;;;;;;;5032839;28;20084;-72
2022/04/01 01:59:18;;;;;;;37.50;22.70;;;;;;;;;;5048624;28;20036;-72
2022/04/01 02:01:45;;;;;;;34.53;19.45;;;;;;;;;;5041398;28;20104;-72
2022/04/01 02:04:11;;;;;;;37.15;24.20;;;;;;;;;;5037392;28;20144;-71
2022/04/01 02:06:38;;;;;;;39.22;24.63;;;;;;;;;;5045394;28;20128;-72
2022/04/01 02:09:04;;;;;;;40.88;22.23;;;;;;;;;;5046671;28;20111;-72
2022/04/01 02:11:30;;;;;;;34.95;22.27;;;;;;;;;;5038014;28;20076;-72
2022/04/01 02:13:56;;;;;;;35.30;22.50;;;;;;;;;;5035783;28;20818;-71
2022/04/01 02:16:23;;;;;;;35.20;20.67;;;;;;;;;;5029094;28;20104;-72
2022/04/01 02:18:49;;;;;;;29.85;21.00;;;;;;;;;;5045146;28;20064;-72
2022/04/01 02:21:16;;;;;;;33.05;21.73;;;;;;;;;;5049411;28;20029;-72
2022/04/01 02:23:43;;;;;;;30.77;19.75;;;;;;;;;;5047913;28;20098;-72
2022/04/01 02:26:09;;;;;;;36.95;22.00;;;;;;;;;;5048363;28;20047;-72
2022/04/01 02:28:36;;;;;;;37.47;23.63;;;;;;;;;;5037396;28;20473;-72
2022/04/01 02:31:03;;;;;;;37.60;23.48;;;;;;;;;;5036758;28;20025;-72
2022/04/01 02:33:30;;;;;;;37.28;22.70;;;;;;;;;;5046595;28;20040;-72
2022/04/01 02:35:59;;;;;;;35.35;21.98;;;;;;;;;;5039672;28;20546;-72
2022/04/01 02:38:25;;;;;;;38.63;22.25;;;;;;;;;;5036507;28;20029;-72
2022/04/01 02:40:53;;;;;;;34.08;21.25;;;;;;;;;;5042836;28;20029;-72
2022/04/01 02:43:19;;;;;;;36.00;22.60;;;;;;;;;;5048421;28;20048;-72
2022/04/01 02:45:45;;;;;;;33.90;21.90;;;;;;;;;;5042852;28;20029;-72
2022/04/01 02:48:11;;;;;;;36.63;20.67;;;;;;;;;;5035729;28;20038;-73
2022/04/01 02:50:39;;;;;;;36.35;21.77;;;;;;;;;;5035887;28;20056;-72
2022/04/01 02:53:05;;;;;;;34.88;20.75;;;;;;;;;;5041549;28;20032;-72
2022/04/01 02:55:32;;;;;;;33.58;19.65;;;;;;;;;;5044408;28;20043;-72
2022/04/01 02:57:59;;;;;;;38.58;20.98;;;;;;;;;;5039479;28;20099;-71
2022/04/01 03:00:26;;;;;;;34.92;22.35;;;;;;;;;;5029880;28;20100;-72
2022/04/01 03:02:53;;;;;;;38.15;23.13;;;;;;;;;;5034788;28;20065;-72
2022/04/01 03:05:19;;;;;;;46.95;25.52;;;;;;;;;;5034833;28;20025;-73
2022/04/01 03:07:45;;;;;;;37.72;21.77;;;;;;;;;;5031185;28;20796;-72
2022/04/01 03:10:11;;;;;;;37.92;22.80;;;;;;;;;;5046571;28;20099;-72
2022/04/01 03:12:38;;;;;;;33.67;21.80;;;;;;;;;;5033734;28;20037;-73
2022/04/01 03:15:04;;;;;;;40.42;23.85;;;;;;;;;;5047576;28;20032;-72
2022/04/01 03:17:31;;;;;;;41.65;22.83;;;;;;;;;;5034867;28;20241;-71
2022/04/01 03:19:59;;;;;;;45.33;24.63;;;;;;;;;;5031737;28;20954;-72
2022/04/01 03:22:25;;;;;;;40.42;24.60;;;;;;;;;;5040052;28;20094;-71
2022/04/01 03:24:52;;;;;;;43.08;26.35;;;;;;;;;;5043117;28;20681;-72
2022/04/01 03:27:18;;;;;;;52.38;28.83;;;;;;;;;;5039439;28;20036;-72
2022/04/01 03:29:45;;;;;;;38.40;23.27;;;;;;;;;;5043164;28;20056;-72
2022/04/01 03:32:11;;;;;;;39.53;23.20;;;;;;;;;;5040309;28;20079;-72
2022/04/01 03:34:38;;;;;;;36.72;22.90;;;;;;;;;;5032916;28;20022;-72
2022/04/01 03:37:05;;;;;;;36.90;22.27;;;;;;;;;;5045406;28;20072;-71
2022/04/01 03:39:32;;;;;;;38.83;24.02;;;;;;;;;;5034427;28;20566;-72
2022/04/01 03:41:58;;;;;;;38.78;24.00;;;;;;;;;;5033948;28;20045;-72
2022/04/01 03:44:25;;;;;;;40.13;23.85;;;;;;;;;;5031476;28;20136;-72
2022/04/01 03:46:53;;;;;;;40.55;24.50;;;;;;;;;;5041967;28;20044;-72
2022/04/01 03:49:24;;;;;;;41.90;25.77;;;;;;;;;;5034611;28;20034;-72
2022/04/01 03:51:50;;;;;;;42.95;25.10;;;;;;;;;;5045525;28;20025;-72
2022/04/01 03:54:16;;;;;;;43.30;26.00;;;;;;;;;;5040510;28;20056;-72
2022/04/01 03:56:44;;;;;;;37.28;23.73;;;;;;;;;;5036427;28;20041;-72
2022/04/01 03:59:13;;;;;;;47.55;28.17;;;;;;;;;;5047156;28;20407;-72
2022/04/01 04:01:39;;;;;;;41.78;24.60;;;;;;;;;;5040090;28;20590;-72
2022/04/01 04:04:06;;;;;;;40.05;24.52;;;;;;;;;;5039075;28;20512;-72
2022/04/01 04:06:34;;;;;;;40.10;25.80;;;;;;;;;;5043180;28;20180;-71
2022/04/01 04:09:02;;;;;;;39.42;26.35;;;;;;;;;;5039839;28;20055;-72
2022/04/01 04:11:31;;;;;;;39.20;24.40;;;;;;;;;;5035102;28;20025;-72
2022/04/01 04:13:58;;;;;;;41.80;24.35;;;;;;;;;;5034869;28;20453;-72
2022/04/01 04:16:26;;;;;;;35.33;23.92;;;;;;;;;;5032057;28;20037;-72
2022/04/01 04:19:00;;;;;;;37.58;23.60;;;;;;;;;;5051086;28;20036;-72
2022/04/01 04:21:31;;;;;;;39.53;25.67;;;;;;;;;;5041066;28;20108;-72
2022/04/01 04:23:58;;;;;;;43.38;27.40;;;;;;;;;;5041480;28;20041;-72
2022/04/01 04:26:31;;;;;;;43.85;27.42;;;;;;;;;;5048392;28;20024;-72
2022/04/01 04:29:02;;;;;;;37.72;25.88;;;;;;;;;;5050167;28;20037;-72
2022/04/01 04:31:30;;;;;;;41.22;26.25;;;;;;;;;;5048186;28;20033;-72
2022/04/01 04:33:57;;;;;;;44.60;26.98;;;;;;;;;;5047577;28;20033;-72
2022/04/01 04:36:36;;;;;;;49.67;26.90;;;;;;;;;;5048195;28;20029;-72
2022/04/01 04:39:04;;;;;;;42.22;26.55;;;;;;;;;;5051088;28;20361;-72
2022/04/01 04:41:32;;;;;;;36.65;24.05;;;;;;;;;;5049757;28;20036;-72
2022/04/01 04:43:59;;;;;;;36.85;24.42;;;;;;;;;;5048937;28;20052;-72
2022/04/01 04:46:26;;;;;;;39.13;24.08;;;;;;;;;;5048358;28;20040;-72
2022/04/01 04:48:54;;;;;;;39.42;25.73;;;;;;;;;;5051119;28;20083;-72
2022/04/01 04:51:23;;;;;;;47.60;26.67;;;;;;;;;;5050608;28;20033;-71
2022/04/01 04:53:50;;;;;;;35.22;24.00;;;;;;;;;;5050733;28;20060;-72
2022/04/01 04:56:18;;;;;;;39.08;23.25;;;;;;;;;;5049850;28;20509;-71
2022/04/01 04:58:44;;;;;;;38.25;24.65;;;;;;;;;;5043166;28;20753;-72
2022/04/01 05:01:17;;;;;;;37.85;24.83;;;;;;;;;;5046497;28;20099;-72
2022/04/01 05:04:09;;;;;;;41.80;24.20;;;;;;;;;;5041930;28;20029;-72
2022/04/01 05:06:40;;;;;;;37.97;23.63;;;;;;;;;;5050489;28;20028;-72
2022/04/01 05:09:21;;;;;;;43.33;25.10;;;;;;;;;;5050808;28;20729;-72
2022/04/01 05:12:07;;;;;;;41.50;25.23;;;;;;;;;;5042547;28;20060;-72
2022/04/01 05:14:36;;;;;;;36.17;24.33;;;;;;;;;;5050528;28;20072;-72
2022/04/01 05:17:04;;;;;;;34.33;22.95;;;;;;;;;;5044761;28;20199;-72
2022/04/01 05:19:31;;;;;;;42.63;25.83;;;;;;;;;;5046670;28;20107;-72
2022/04/01 05:22:16;;;;;;;44.70;26.63;;;;;;;;;;5048480;28;20043;-72
2022/04/01 05:24:48;;;;;;;39.45;23.95;;;;;;;;;;5047224;28;20495;-72
2022/04/01 05:27:22;;;;;;;38.58;25.10;;;;;;;;;;5043934;28;20052;-71
2022/04/01 05:29:52;;;;;;;46.47;27.45;;;;;;;;;;5043412;28;20025;-71
2022/04/01 05:32:18;;;;;;;39.80;25.98;;;;;;;;;;5045538;28;20244;-71
2022/04/01 05:34:45;;;;;;;44.53;24.95;;;;;;;;;;5037773;28;20021;-72
2022/04/01 05:37:13;;;;;;;47.28;28.95;;;;;;;;;;5038075;28;20029;-72
2022/04/01 05:39:40;;;;;;;43.97;26.98;;;;;;;;;;5049868;28;20481;-71
2022/04/01 05:42:10;;;;;;;44.70;28.33;;;;;;;;;;5046154;28;20043;-71
2022/04/01 05:44:37;;;;;;;38.50;22.77;;;;;;;;;;5045288;28;20687;-71
2022/04/01 05:47:04;;;;;;;42.65;22.65;;;;;;;;;;5040444;28;20037;-72
2022/04/01 05:49:30;;;;;;;36.60;21.77;;;;;;;;;;5032553;28;20048;-72
2022/04/01 05:51:57;;;;;;;32.17;22.55;;;;;;;;;;5046351;28;20084;-72
2022/04/01 05:54:25;;;;;;;38.13;24.48;;;;;;;;;;5050599;28;20056;-72
2022/04/01 05:56:51;;;;;;;38.55;24.13;;;;;;;;;;5038101;28;20525;-72
2022/04/01 05:59:19;;;;;;;37.60;24.30;;;;;;;;;;5031842;28;20602;-72
2022/04/01 06:02:05;;;;;;;33.78;23.02;;;;;;;;;;5041165;28;20033;-71
2022/04/01 06:04:43;;;;;;;37.95;22.27;;;;;;;;;;5044730;28;20057;-72
2022/04/01 06:07:24;;;;;;;37.53;23.60;;;;;;;;;;5038816;28;20079;-71
2022/04/01 06:10:00;;;;;;;36.88;24.50;;;;;;;;;;5047453;28;20444;-72
2022/04/01 06:12:38;;;;;;;40.90;25.98;;;;;;;;;;5043876;28;20450;-71
2022/04/01 06:15:04;;;;;;;41.40;26.95;;;;;;;;;;5031223;28;20026;-71
2022/04/01 06:17:42;;;;;;;40.30;25.40;;;;;;;;;;5041393;28;20452;-72
2022/04/01 06:20:08;;;;;;;40.95;25.67;;;;;;;;;;5031654;28;20037;-72
2022/04/01 06:22:36;;;;;;;40.20;25.35;;;;;;;;;;5045673;28;20511;-72
2022/04/01 06:25:17;;;;;;;45.17;28.77;;;;;;;;;;5046409;28;20055;-72
2022/04/01 06:27:47;;;;;;;47.35;30.60;;;;;;;;;;5037841;28;20476;-71
2022/04/01 06:30:14;;;;;;;49.50;29.35;;;;;;;;;;5038966;28;20037;-71
2022/04/01 06:32:40;;;;;;;56.38;33.55;;;;;;;;;;5045344;28;20048;-72
2022/04/01 06:35:31;;;;;;;49.90;31.63;;;;;;;;;;5046906;28;20029;-73
2022/04/01 06:38:01;;;;;;;38.15;20.58;;;;;;;;;;5040699;28;20939;-72
2022/04/01 06:40:32;;;;;;;19.40;10.00;;;;;;;;;;5036530;28;20033;-71
2022/04/01 06:42:58;;;;;;;10.70;6.07;;;;;;;;;;5036392;28;20049;-72
2022/04/01 06:45:24;;;;;;;9.15;4.57;;;;;;;;;;5040215;28;20083;-71
2022/04/01 06:47:51;;;;;;;7.20;3.95;;;;;;;;;;5033770;28;20037;-72
2022/04/01 06:50:17;;;;;;;6.20;2.90;;;;;;;;;;5042631;28;20021;-72
2022/04/01 06:52:43;;;;;;;5.00;2.13;;;;;;;;;;5047181;28;20029;-72
2022/04/01 06:55:10;;;;;;;3.80;1.90;;;;;;;;;;5044297;28;20104;-72
2022/04/01 06:57:36;;;;;;;6.20;2.65;;;;;;;;;;5039524;28;20163;-72
2022/04/01 07:00:11;;;;;;;6.47;2.22;;;;;;;;;;5038376;28;20040;-72
2022/04/01 07:02:38;;;;;;;4.85;2.25;;;;;;;;;;5037676;28;20044;-73
2022/04/01 07:05:05;;;;;;;4.53;2.00;;;;;;;;;;5042999;28;20406;-72
2022/04/01 07:07:31;;;;;;;5.93;2.00;;;;;;;;;;5041792;28;20045;-72
2022/04/01 07:09:57;;;;;;;4.40;1.98;;;;;;;;;;5044941;28;20029;-72
2022/04/01 07:12:23;;;;;;;4.60;2.05;;;;;;;;;;5033991;28;20042;-72
2022/04/01 07:14:50;;;;;;;4.55;2.30;;;;;;;;;;5053101;28;20035;-73
2022/04/01 07:17:16;;;;;;;4.70;2.42;;;;;;;;;;5039797;28;20040;-73
2022/04/01 07:19:42;;;;;;;5.70;2.92;;;;;;;;;;5040237;28;20048;-72
2022/04/01 07:22:08;;;;;;;4.25;2.38;;;;;;;;;;5039262;28;20521;-72
2022/04/01 07:24:34;;;;;;;4.97;2.38;;;;;;;;;;5044434;28;20041;-72
2022/04/01 07:27:00;;;;;;;5.05;2.20;;;;;;;;;;5044828;28;20704;-72
2022/04/01 07:29:27;;;;;;;5.55;2.08;;;;;;;;;;5030634;28;20052;-72
2022/04/01 07:34:40;;;;;;;4.93;2.38;;;;;;;;;;5048051;28;20040;-72
2022/04/01 07:37:06;;;;;;;3.92;1.90;;;;;;;;;;5042032;28;20163;-72
2022/04/01 07:39:32;;;;;;;4.25;1.85;;;;;;;;;;5039541;28;20468;-72
2022/04/01 07:41:58;;;;;;;3.33;1.33;;;;;;;;;;5041150;28;20358;-72
2022/04/01 07:44:24;;;;;;;3.35;1.25;;;;;;;;;;5036121;28;20057;-72
2022/04/01 07:46:51;;;;;;;6.18;1.77;;;;;;;;;;5051703;28;20044;-72
2022/04/01 07:49:17;;;;;;;4.47;1.60;;;;;;;;;;5038919;28;20473;-72
2022/04/01 07:51:43;;;;;;;4.88;1.85;;;;;;;;;;5044708;28;20033;-72
2022/04/01 07:54:13;;;;;;;7.57;2.00;;;;;;;;;;5045474;28;20856;-73
2022/04/01 07:56:40;;;;;;;3.88;1.70;;;;;;;;;;5041456;28;20083;-73
2022/04/01 07:59:10;;;;;;;4.07;1.60;;;;;;;;;;5052205;28;20094;-72
2022/04/01 08:01:36;;;;;;;4.00;1.25;;;;;;;;;;5043348;28;20058;-72
2022/04/01 08:04:02;;;;;;;3.55;1.40;;;;;;;;;;5043435;28;20079;-73
2022/04/01 08:06:30;;;;;;;4.20;1.40;;;;;;;;;;5043270;28;20063;-72
2022/04/01 08:08:58;;;;;;;5.45;2.08;;;;;;;;;;5043821;28;20569;-72
2022/04/01 08:11:24;;;;;;;3.05;1.20;;;;;;;;;;5042220;28;20128;-72
2022/04/01 08:13:50;;;;;;;3.30;1.30;;;;;;;;;;5054063;28;20029;-72
2022/04/01 08:16:16;;;;;;;3.33;1.30;;;;;;;;;;5051781;28;20098;-72
2022/04/01 08:18:43;;;;;;;3.30;1.27;;;;;;;;;;5037665;28;20807;-73
2022/04/01 08:21:09;;;;;;;2.90;1.10;;;;;;;;;;5043417;28;20064;-72
2022/04/01 08:23:36;;;;;;;3.50;1.45;;;;;;;;;;5048797;28;20037;-72
2022/04/01 08:26:03;;;;;;;3.53;1.42;;;;;;;;;;5041536;28;20022;-71
2022/04/01 08:28:29;;;;;;;3.10;1.20;;;;;;;;;;5048445;28;20084;-72
2022/04/01 08:30:55;;;;;;;3.15;1.30;;;;;;;;;;5051234;28;20044;-72
2022/04/01 08:33:21;;;;;;;3.83;1.27;;;;;;;;;;5044504;28;20033;-72
2022/04/01 08:35:47;;;;;;;3.10;1.30;;;;;;;;;;5048106;28;20029;-72
2022/04/01 08:38:13;;;;;;;2.90;1.02;;;;;;;;;;5047432;28;20074;-73
2022/04/01 08:40:39;;;;;;;3.30;1.17;;;;;;;;;;5041556;28;20753;-72
2022/04/01 08:43:05;;;;;;;3.53;1.52;;;;;;;;;;5052075;28;20519;-72
2022/04/01 08:45:36;;;;;;;5.55;1.40;;;;;;;;;;5044831;28;20029;-72
2022/04/01 08:48:04;;;;;;;3.78;1.20;;;;;;;;;;5052746;28;20174;-72
2022/04/01 08:50:30;;;;;;;4.93;1.17;;;;;;;;;;5043011;28;20132;-72
2022/04/01 08:52:56;;;;;;;2.88;0.98;;;;;;;;;;5047525;28;20029;-72
2022/04/01 08:55:22;;;;;;;3.47;1.15;;;;;;;;;;5046326;28;20040;-73
2022/04/01 08:57:48;;;;;;;2.38;0.93;;;;;;;;;;5044951;28;20041;-72
2022/04/01 09:00:14;;;;;;;4.63;1.30;;;;;;;;;;5049650;28;20090;-72
2022/04/01 09:02:41;;;;;;;4.50;2.15;;;;;;;;;;5041516;28;20033;-72
2022/04/01 09:05:08;;;;;;;7.45;2.65;;;;;;;;;;5043782;28;20041;-73
2022/04/01 09:07:34;;;;;;;4.18;1.90;;;;;;;;;;5034515;28;20048;-73
2022/04/01 09:10:01;;;;;;;4.63;2.13;;;;;;;;;;5044373;28;20025;-72
2022/04/01 09:12:28;;;;;;;4.88;2.50;;;;;;;;;;5049881;28;20071;-72
2022/04/01 09:14:55;;;;;;;3.63;2.00;;;;;;;;;;5044470;28;20025;-72
2022/04/01 09:17:22;;;;;;;4.05;1.80;;;;;;;;;;5037380;28;20111;-72
2022/04/01 09:19:49;;;;;;;5.18;2.78;;;;;;;;;;5049102;28;20033;-72
2022/04/01 09:22:15;;;;;;;4.55;1.98;;;;;;;;;;5038792;28;20033;-73
2022/04/01 09:24:55;;;;;;;4.38;2.00;;;;;;;;;;5044024;28;20464;-72
2022/04/01 09:27:36;;;;;;;6.55;2.53;;;;;;;;;;5040415;28;20354;-73
2022/04/01 09:30:02;;;;;;;6.68;2.90;;;;;;;;;;5045206;28;20024;-72
2022/04/01 09:32:41;;;;;;;7.22;2.88;;;;;;;;;;5044464;28;20029;-72
2022/04/01 09:35:10;;;;;;;5.45;2.65;;;;;;;;;;5044915;28;20032;-72
2022/04/01 09:37:44;;;;;;;7.68;2.90;;;;;;;;;;5048318;28;20039;-73
2022/04/01 09:40:12;;;;;;;8.32;2.60;;;;;;;;;;5044350;28;20035;-72
2022/04/01 09:42:38;;;;;;;7.53;2.55;;;;;;;;;;5048798;28;20803;-73
2022/04/01 09:45:05;;;;;;;6.68;2.30;;;;;;;;;;5046037;28;20036;-72
2022/04/01 09:47:36;;;;;;;5.88;2.65;;;;;;;;;;5047851;28;20550;-72
2022/04/01 09:50:04;;;;;;;8.17;2.30;;;;;;;;;;5043520;28;20059;-72
2022/04/01 09:52:36;;;;;;;4.38;2.40;;;;;;;;;;5046578;28;20323;-72
2022/04/01 09:55:02;;;;;;;5.93;2.33;;;;;;;;;;5038934;28;20112;-72
2022/04/01 09:57:28;;;;;;;5.53;2.80;;;;;;;;;;5053227;28;20140;-72
2022/04/01 09:59:55;;;;;;;5.78;3.42;;;;;;;;;;5040720;28;20037;-72
2022/04/01 10:02:21;;;;;;;6.40;3.25;;;;;;;;;;5042605;28;20033;-72
2022/04/01 10:04:47;;;;;;;5.22;3.05;;;;;;;;;;5043878;28;20109;-72
2022/04/01 10:07:13;;;;;;;5.97;2.65;;;;;;;;;;5033032;28;20041;-72
2022/04/01 10:09:40;;;;;;;4.85;2.70;;;;;;;;;;5043893;28;20021;-72
2022/04/01 10:12:08;;;;;;;6.15;3.42;;;;;;;;;;5048570;28;20028;-72
2022/04/01 10:14:36;;;;;;;5.10;2.80;;;;;;;;;;5039639;28;20034;-72
2022/04/01 10:17:02;;;;;;;3.92;2.70;;;;;;;;;;5047550;28;20610;-72
2022/04/01 10:19:30;;;;;;;5.22;2.65;;;;;;;;;;5038065;28;20376;-72
2022/04/01 10:21:56;;;;;;;5.13;3.08;;;;;;;;;;5041759;28;20060;-72
2022/04/01 10:24:28;;;;;;;5.57;2.67;;;;;;;;;;5035837;28;20042;-72
2022/04/01 10:26:54;;;;;;;5.28;3.05;;;;;;;;;;5040776;28;20480;-72
2022/04/01 10:29:21;;;;;;;6.32;3.10;;;;;;;;;;5040916;28;20116;-72
2022/04/01 10:32:16;;;;;;;5.30;3.20;;;;;;;;;;5046806;28;20036;-72
2022/04/01 10:34:46;;;;;;;5.30;2.65;;;;;;;;;;5040297;28;20038;-72
2022/04/01 10:37:14;;;;;;;6.30;2.72;;;;;;;;;;5036239;28;20025;-71
2022/04/01 10:39:52;;;;;;;5.22;3.38;;;;;;;;;;5040292;28;20479;-72
2022/04/01 10:42:19;;;;;;;5.40;3.03;;;;;;;;;;5033305;28;20056;-73
2022/04/01 10:44:48;;;;;;;5.60;3.22;;;;;;;;;;5042094;28;20049;-72
2022/04/01 10:47:14;;;;;;;5.07;2.67;;;;;;;;;;5038752;28;20025;-72
2022/04/01 10:52:25;;;;;;;6.53;3.30;;;;;;;;;;5040133;28;20117;-72
2022/04/01 10:55:06;;;;;;;7.80;3.38;;;;;;;;;;5045303;28;20033;-72
2022/04/01 10:57:40;;;;;;;4.93;2.97;;;;;;;;;;5045023;28;20040;-72
2022/04/01 11:00:14;;;;;;;5.50;2.75;;;;;;;;;;5047101;28;20792;-72
2022/04/01 11:02:40;;;;;;;4.15;2.20;;;;;;;;;;5041262;28;20037;-73
2022/04/01 11:05:25;;;;;;;7.97;3.33;;;;;;;;;;5041495;28;20029;-72
2022/04/01 11:08:10;;;;;;;6.25;1.95;;;;;;;;;;5039967;28;20048;-73
2022/04/01 11:10:36;;;;;;;3.38;1.77;;;;;;;;;;5035541;28;20072;-73
2022/04/01 11:13:02;;;;;;;3.85;2.05;;;;;;;;;;5039814;28;20037;-72
2022/04/01 11:15:28;;;;;;;4.28;1.55;;;;;;;;;;5043946;28;20660;-72
2022/04/01 11:17:57;;;;;;;3.15;1.42;;;;;;;;;;5041636;28;20148;-72
2022/04/01 11:20:27;;;;;;;3.97;1.80;;;;;;;;;;5045768;28;20372;-72
2022/04/01 11:22:53;;;;;;;4.63;1.67;;;;;;;;;;5034224;28;20033;-72
2022/04/01 11:25:19;;;;;;;4.25;1.45;;;;;;;;;;5041849;28;20041;-72
2022/04/01 11:28:06;;;;;;;3.03;1.40;;;;;;;;;;5040025;28;20041;-72
2022/04/01 11:30:33;;;;;;;2.60;1.33;;;;;;;;;;5037401;28;20860;-73
2022/04/01 11:33:01;;;;;;;4.03;1.27;;;;;;;;;;5040185;28;20146;-72
2022/04/01 11:35:28;;;;;;;2.92;1.38;;;;;;;;;;5039504;28;20672;-72
2022/04/01 11:37:54;;;;;;;3.08;1.65;;;;;;;;;;5047358;28;20032;-73
2022/04/01 11:40:22;;;;;;;2.72;1.60;;;;;;;;;;5034230;28;20124;-73
2022/04/01 11:42:52;;;;;;;3.00;1.80;;;;;;;;;;5037879;28;20049;-72
2022/04/01 11:45:19;;;;;;;2.42;1.45;;;;;;;;;;5045499;28;20124;-72
2022/04/01 11:47:45;;;;;;;5.50;1.58;;;;;;;;;;5057149;28;20033;-72
2022/04/01 11:50:13;;;;;;;3.55;1.30;;;;;;;;;;5033627;28;20033;-72
2022/04/01 11:52:42;;;;;;;2.63;1.17;;;;;;;;;;5044611;28;20072;-72
2022/04/01 11:55:11;;;;;;;3.70;1.52;;;;;;;;;;5034396;28;21102;-72
2022/04/01 11:57:37;;;;;;;3.13;1.35;;;;;;;;;;5045366;28;20041;-73
2022/04/01 12:00:14;;;;;;;5.55;2.17;;;;;;;;;;5035303;28;20725;-72
2022/04/01 12:02:40;;;;;;;3.70;1.70;;;;;;;;;;5044352;28;20586;-72
2022/04/01 12:05:06;;;;;;;3.83;1.63;;;;;;;;;;5035934;28;20032;-72
2022/04/01 12:10:18;;;;;;;2.80;1.20;;;;;;;;;;5035499;28;20040;-73
2022/04/01 12:12:54;;;;;;;3.42;1.23;;;;;;;;;;5042459;28;20037;-72
2022/04/01 12:15:31;;;;;;;3.22;1.10;;;;;;;;;;5040302;28;20511;-72
2022/04/01 12:17:57;;;;;;;2.53;1.27;;;;;;;;;;5043826;28;20858;-73
2022/04/01 12:20:23;;;;;;;3.25;1.35;;;;;;;;;;5042804;28;20033;-72
2022/04/01 12:22:52;;;;;;;2.30;1.27;;;;;;;;;;5042354;28;20449;-72
2022/04/01 12:25:19;;;;;;;2.50;1.30;;;;;;;;;;5038238;28;20035;-73
2022/04/01 12:27:52;;;;;;;5.13;2.03;;;;;;;;;;5043894;28;20029;-72
2022/04/01 12:30:28;;;;;;;2.95;1.40;;;;;;;;;;5056115;28;20022;-72
2022/04/01 12:32:56;;;;;;;3.88;1.55;;;;;;;;;;5044762;28;20850;-73
2022/04/01 12:35:22;;;;;;;4.30;1.77;;;;;;;;;;5040008;28;20103;-72
2022/04/01 12:38:02;;;;;;;2.70;1.38;;;;;;;;;;5050324;28;20029;-72
2022/04/01 12:40:28;;;;;;;3.47;1.75;;;;;;;;;;5046095;28;20025;-72
2022/04/01 12:42:54;;;;;;;2.75;1.42;;;;;;;;;;5046093;28;20049;-72
2022/04/01 12:45:20;;;;;;;2.83;1.60;;;;;;;;;;5049670;28;20039;-72
2022/04/01 12:47:46;;;;;;;3.08;1.85;;;;;;;;;;5045577;28;20029;-72
2022/04/01 12:50:30;;;;;;;4.07;1.73;;;;;;;;;;5039940;28;20029;-72
2022/04/01 12:53:08;;;;;;;4.38;1.30;;;;;;;;;;5042643;28;20033;-72
2022/04/01 12:55:34;;;;;;;3.85;1.42;;;;;;;;;;5037919;28;20491;-72
2022/04/01 12:58:00;;;;;;;3.55;1.88;;;;;;;;;;5042970;28;20037;-73
2022/04/01 13:00:26;;;;;;;5.32;2.08;;;;;;;;;;5048233;28;20029;-72
2022/04/01 13:02:52;;;;;;;3.03;1.73;;;;;;;;;;5042117;28;20697;-72
2022/04/01 13:05:18;;;;;;;5.57;2.00;;;;;;;;;;5046387;28;20037;-72
2022/04/01 13:07:46;;;;;;;3.42;2.00;;;;;;;;;;5044165;28;20091;-73
2022/04/01 13:10:13;;;;;;;5.95;2.20;;;;;;;;;;5046237;28;20025;-73
2022/04/01 13:12:40;;;;;;;4.13;2.22;;;;;;;;;;5036795;28;20021;-73
2022/04/01 13:15:07;;;;;;;5.18;3.42;;;;;;;;;;5048165;28;20443;-72
2022/04/01 13:17:43;;;;;;;8.05;3.65;;;;;;;;;;5049628;28;20043;-72
2022/04/01 13:20:11;;;;;;;5.60;3.22;;;;;;;;;;5041773;28;20033;-72
2022/04/01 13:22:38;;;;;;;8.27;3.00;;;;;;;;;;5047349;28;20040;-72
2022/04/01 13:25:05;;;;;;;3.83;2.60;;;;;;;;;;5042087;28;20075;-72
2022/04/01 13:27:31;;;;;;;5.38;2.33;;;;;;;;;;5046496;28;20091;-72
2022/04/01 13:29:58;;;;;;;6.50;2.63;;;;;;;;;;5038579;28;20036;-73
2022/04/01 13:32:25;;;;;;;5.43;3.22;;;;;;;;;;5035903;28;20752;-72
2022/04/01 13:34:51;;;;;;;4.90;2.30;;;;;;;;;;5047716;28;20132;-73
2022/04/01 13:37:18;;;;;;;4.55;2.80;;;;;;;;;;5039431;28;20022;-72
2022/04/01 13:39:45;;;;;;;4.65;1.95;;;;;;;;;;5046661;28;20037;-72
2022/04/01 13:42:11;;;;;;;4.93;3.00;;;;;;;;;;5040868;28;20039;-72
2022/04/01 13:59:59;;;;;;;6.88;3.85;;;;;;;;;;5040266;28;20056;-72
2022/04/01 14:02:25;;;;;;;6.28;3.22;;;;;;;;;;5040524;28;20696;-72
2022/04/01 14:04:51;;;;;;;7.63;3.30;;;;;;;;;;5042689;28;20059;-72
2022/04/01 14:07:17;;;;;;;14.23;7.22;;;;;;;;;;5047631;28;20033;-71
2022/04/01 14:09:44;;;;;;;7.43;4.03;;;;;;;;;;5038050;28;20391;-71
2022/04/01 14:12:11;;;;;;;7.20;3.45;;;;;;;;;;5038981;28;20032;-71
2022/04/01 14:14:37;;;;;;;6.43;3.92;;;;;;;;;;5046081;28;20033;-72
2022/04/01 14:17:04;;;;;;;6.43;3.47;;;;;;;;;;5046600;28;20527;-72
2022/04/01 14:19:30;;;;;;;7.22;3.53;;;;;;;;;;5041029;28;20047;-72
2022/04/01 14:21:56;;;;;;;7.55;3.83;;;;;;;;;;5044679;28;20111;-72
2022/04/01 14:24:22;;;;;;;8.13;3.58;;;;;;;;;;5044188;28;20037;-72
2022/04/01 14:26:48;;;;;;;7.20;3.72;;;;;;;;;;5049281;28;20074;-72
2022/04/01 14:32:00;;;;;;;5.95;3.53;;;;;;;;;;5046937;28;20515;-71
2022/04/01 14:34:36;;;;;;;8.45;5.25;;;;;;;;;;5038768;28;20033;-72
2022/04/01 14:37:03;;;;;;;11.55;6.07;;;;;;;;;;5032700;28;20037;-74
2022/04/01 14:39:29;;;;;;;6.85;3.92;;;;;;;;;;5049247;28;20457;-73
2022/04/01 14:41:56;;;;;;;6.75;4.30;;;;;;;;;;5048209;28;20040;-73
2022/04/01 14:44:22;;;;;;;7.70;3.80;;;;;;;;;;5048895;28;20805;-71
2022/04/01 14:46:49;;;;;;;7.85;4.80;;;;;;;;;;5032939;28;20078;-71
2022/04/01 14:49:15;;;;;;;7.18;3.85;;;;;;;;;;5040471;28;20036;-72
2022/04/01 14:51:41;;;;;;;6.43;3.55;;;;;;;;;;5043609;28;20043;-71
2022/04/01 14:54:07;;;;;;;7.63;3.97;;;;;;;;;;5035778;28;20037;-72
2022/04/01 14:56:34;;;;;;;8.80;5.25;;;;;;;;;;5036922;28;20111;-72
2022/04/01 14:59:01;;;;;;;6.15;3.40;;;;;;;;;;5045578;28;20116;-71
2022/04/01 15:01:27;;;;;;;5.85;3.08;;;;;;;;;;5045035;28;20678;-71
2022/04/01 15:03:53;;;;;;;7.15;4.07;;;;;;;;;;5045231;28;20033;-72
2022/04/01 15:06:20;;;;;;;8.48;4.43;;;;;;;;;;5042690;28;20025;-71
2022/04/01 15:08:47;;;;;;;8.32;4.53;;;;;;;;;;5039681;28;20044;-72